NCAR-RAP Real-Time Weather Data

Output produced by METARs form (12 August 2020  18:15 UTC)
found at http://weather.rap.ucar.edu/surface/
 
KELP 121751Z 18008KT 150V220 10SM FEW110 FEW250 37/09 A3004 RMK AO2 SLP083 TCU DSNT NE T03670094 10367 20278 58000
KELP 121651Z 17006KT 10SM FEW100 FEW250 34/09 A3005 RMK AO2 SLP085 TCU DSNT NE T03440089
KELP 121551Z 20008KT 10SM FEW190 SCT250 33/10 A3004 RMK AO2 SLP083 T03280100
KELP 121451Z 17007KT 10SM FEW190 BKN250 31/10 A3004 RMK AO2 SLP084 T03110100 51010
KELP 121351Z 18009KT 10SM FEW120 FEW190 BKN250 29/10 A3003 RMK AO2 SLP083 T02940100
KELP 121251Z 18007KT 10SM FEW120 SCT190 BKN250 28/08 A3002 RMK AO2 SLP079 T02830083
KELP 121151Z 20007KT 10SM FEW150 SCT200 29/08 A3001 RMK AO2 SLP072 T02890083 10328 20272 53003
KELP 121051Z VRB04KT 10SM SCT150 29/09 A3000 RMK AO2 SLP070 T02890089
KELP 120951Z 13005KT 10SM FEW120 SCT150 28/09 A3000 RMK AO2 SLP069 T02780089
KELP 120851Z 20005KT 10SM FEW120 FEW150 31/08 A3000 RMK AO2 SLP067 T03060083 51004
KELP 120751Z 15007KT 10SM FEW150 30/09 A2999 RMK AO2 SLP067 T03000089
KELP 120651Z 15005KT 10SM SCT150 31/08 A2999 RMK AO2 SLP067 T03060078 404110267
KELP 120551Z 17007KT 10SM SCT150 32/08 A2999 RMK AO2 SLP064 T03220078 10389 20317 53013
KELP 120451Z 18006KT 10SM FEW160 FEW200 33/07 A2996 RMK AO2 SLP057 T03330072
KELP 120351Z 12006KT 10SM BKN160 BKN200 35/07 A2996 RMK AO2 SLP055 T03500067
KELP 120251Z 11003KT 10SM SCT160 BKN200 35/07 A2994 RMK AO2 SLP050 T03500072 53005
KELP 120151Z 10006KT 10SM FEW130 SCT180 BKN200 36/07 A2993 RMK AO2 SLP046 VIRGA DSNT E-S-W T03610067
KELP 120051Z 15005KT 10SM FEW130 BKN180 38/06 A2992 RMK AO2 SLP044 VIRGA OHD-E AND DSNT SW-W TCU DSNT SE T03780061
KELP 112351Z 36003KT 10SM FEW130 BKN180 BKN250 39/04 A2993 RMK AO2 SLP044 VIRGA OHD-NE AND DSNT E-SE CB DSNT S T03890044 10411 20367 56013
KELP 112251Z 20004KT 10SM FEW130 BKN180 BKN250 38/04 A2994 RMK AO2 SLP049 VIRGA DSNT NE-E CB DSNT SE AND S T03830044